createdAt,value
2022-11-27T00:01:29.288Z,11.88
2022-11-27T00:03:57.274Z,12.15
2022-11-27T00:06:26.658Z,11.77
2022-11-27T00:08:57.262Z,14.98
2022-11-27T00:11:26.721Z,15.67
2022-11-27T00:13:54.366Z,14.30
2022-11-27T00:16:23.258Z,12.90
2022-11-27T00:18:51.321Z,18.52
2022-11-27T00:21:22.837Z,17.25
2022-11-27T00:23:52.088Z,13.77
2022-11-27T00:26:19.922Z,15.85
2022-11-27T00:28:47.694Z,19.95
2022-11-27T00:31:17.421Z,12.00
2022-11-27T00:33:45.584Z,17.23
2022-11-27T00:36:14.471Z,18.93
2022-11-27T00:38:42.887Z,28.75
2022-11-27T00:41:12.867Z,19.73
2022-11-27T00:43:44.551Z,20.92
2022-11-27T00:46:14.061Z,26.70
2022-11-27T00:48:42.902Z,22.07
2022-11-27T00:51:13.415Z,38.90
2022-11-27T00:53:41.851Z,26.50
2022-11-27T00:56:12.856Z,28.38
2022-11-27T00:58:40.489Z,31.35
2022-11-27T01:01:08.574Z,30.03
2022-11-27T01:03:36.151Z,24.08
2022-11-27T01:06:05.554Z,23.23
2022-11-27T01:08:34.260Z,25.42
2022-11-27T01:11:02.555Z,29.83
2022-11-27T01:13:33.996Z,19.23
2022-11-27T01:16:04.364Z,31.45
2022-11-27T01:18:33.040Z,30.00
2022-11-27T01:21:01.488Z,25.63
2022-11-27T01:23:30.097Z,27.15
2022-11-27T01:26:00.312Z,29.33
2022-11-27T01:28:27.920Z,27.90
2022-11-27T01:30:56.006Z,29.50
2022-11-27T01:33:24.074Z,24.02
2022-11-27T01:35:56.736Z,30.55
2022-11-27T01:38:25.194Z,24.73
2022-11-27T01:40:58.831Z,25.40
2022-11-27T01:43:45.157Z,27.75
2022-11-27T01:46:31.164Z,15.13
2022-11-27T01:49:10.908Z,31.73
2022-11-27T01:52:01.391Z,28.23
2022-11-27T01:54:45.702Z,30.98
2022-11-27T01:57:22.544Z,25.20
2022-11-27T01:59:52.179Z,19.13
2022-11-27T02:02:19.735Z,27.55
2022-11-27T02:04:47.268Z,23.07
2022-11-27T02:07:15.021Z,23.60
2022-11-27T02:09:42.715Z,29.08
2022-11-27T02:12:26.900Z,23.67
2022-11-27T02:15:26.628Z,24.40
2022-11-27T02:18:15.669Z,31.13
2022-11-27T02:20:52.776Z,24.98
2022-11-27T02:23:38.567Z,27.52
2022-11-27T02:26:24.863Z,25.80
2022-11-27T02:29:03.700Z,29.50
2022-11-27T02:31:53.114Z,22.23
2022-11-27T02:34:36.193Z,24.98
2022-11-27T02:37:22.056Z,21.92
2022-11-27T02:39:58.608Z,18.45
2022-11-27T02:42:29.144Z,21.67
2022-11-27T02:45:07.952Z,17.47
2022-11-27T02:47:36.468Z,26.67
2022-11-27T02:50:05.488Z,24.40
2022-11-27T02:52:33.611Z,18.33
2022-11-27T02:55:07.165Z,26.65
2022-11-27T02:57:37.849Z,20.13
2022-11-27T03:00:06.936Z,17.48
2022-11-27T03:02:39.861Z,14.95
2022-11-27T03:05:12.438Z,16.08
2022-11-27T03:07:50.321Z,22.63
2022-11-27T03:10:33.916Z,18.83
2022-11-27T03:13:03.407Z,13.82
2022-11-27T03:15:42.112Z,26.00
2022-11-27T03:18:23.157Z,17.70
2022-11-27T03:20:59.409Z,21.42
2022-11-27T03:23:39.227Z,23.50
2022-11-27T03:26:19.564Z,28.60
2022-11-27T03:28:48.379Z,18.45
2022-11-27T03:31:16.146Z,18.45
2022-11-27T03:33:44.237Z,18.05
2022-11-27T03:36:20.444Z,18.03
2022-11-27T03:38:49.741Z,19.05
2022-11-27T03:41:51.179Z,13.23
2022-11-27T03:44:30.869Z,18.13
2022-11-27T03:47:26.258Z,17.73
2022-11-27T03:49:59.783Z,18.03
2022-11-27T03:52:38.839Z,19.95
2022-11-27T03:55:27.548Z,17.75
2022-11-27T03:58:02.034Z,16.27
2022-11-27T04:00:39.467Z,15.07
2022-11-27T04:03:13.271Z,13.33
2022-11-27T04:05:41.208Z,18.70
2022-11-27T04:08:08.753Z,11.88
2022-11-27T04:10:36.406Z,15.23
2022-11-27T04:13:04.008Z,11.30
2022-11-27T04:15:31.605Z,17.57
2022-11-27T04:17:59.204Z,17.67
2022-11-27T04:20:26.842Z,16.67
2022-11-27T04:22:54.407Z,16.83
2022-11-27T04:25:22.445Z,15.98
2022-11-27T04:27:50.541Z,21.30
2022-11-27T04:30:18.812Z,18.30
2022-11-27T04:32:46.487Z,14.25
2022-11-27T04:35:14.443Z,20.15
2022-11-27T04:37:42.016Z,20.52
2022-11-27T04:40:10.558Z,22.13
2022-11-27T04:42:38.050Z,23.90
2022-11-27T04:45:06.213Z,26.35
2022-11-27T04:47:33.744Z,19.25
2022-11-27T04:50:01.303Z,16.70
2022-11-27T04:52:28.790Z,22.07
2022-11-27T04:55:00.043Z,15.68
2022-11-27T04:57:28.503Z,23.63
2022-11-27T04:59:56.321Z,21.33
2022-11-27T05:02:23.972Z,22.95
2022-11-27T05:04:51.503Z,20.30
2022-11-27T05:07:19.126Z,23.40
2022-11-27T05:09:46.752Z,20.98
2022-11-27T05:12:14.360Z,24.08
2022-11-27T05:14:42.237Z,19.20
2022-11-27T05:17:10.348Z,24.67
2022-11-27T05:19:37.947Z,24.67
2022-11-27T05:22:05.789Z,21.75
2022-11-27T05:24:33.584Z,26.73
2022-11-27T05:27:01.211Z,21.08
2022-11-27T05:29:28.760Z,27.97
2022-11-27T05:31:56.498Z,24.25
2022-11-27T05:34:24.194Z,20.10
2022-11-27T05:36:51.782Z,28.67
2022-11-27T05:39:19.274Z,23.95
2022-11-27T05:41:46.987Z,30.43
2022-11-27T05:44:15.461Z,24.88
2022-11-27T05:46:46.381Z,20.10
2022-11-27T05:49:15.774Z,17.90
2022-11-27T05:51:50.392Z,28.48
2022-11-27T05:54:19.516Z,19.20
2022-11-27T05:56:47.143Z,24.77
2022-11-27T05:59:15.192Z,29.48
2022-11-27T06:01:43.371Z,26.17
2022-11-27T06:04:11.089Z,25.65
2022-11-27T06:06:38.693Z,28.87
2022-11-27T06:09:12.162Z,20.48
2022-11-27T06:11:41.593Z,16.30
2022-11-27T06:14:10.053Z,15.38
2022-11-27T06:16:38.212Z,26.85
2022-11-27T06:19:05.870Z,24.37
2022-11-27T06:21:33.461Z,22.90
2022-11-27T06:24:00.968Z,25.17
2022-11-27T06:26:30.908Z,24.25
2022-11-27T06:29:00.341Z,25.15
2022-11-27T06:31:30.792Z,20.40
2022-11-27T06:33:58.782Z,19.10
2022-11-27T06:36:32.024Z,16.02
2022-11-27T06:39:00.080Z,24.75
2022-11-27T06:41:28.699Z,16.02
2022-11-27T06:43:58.961Z,23.13
2022-11-27T06:46:27.652Z,24.90
2022-11-27T06:48:55.257Z,19.60
2022-11-27T06:51:25.495Z,24.27
2022-11-27T06:53:53.657Z,25.17
2022-11-27T06:56:27.384Z,23.97
2022-11-27T06:58:57.833Z,24.95
2022-11-27T07:01:27.918Z,23.38
2022-11-27T07:03:56.495Z,20.33
2022-11-27T07:06:26.709Z,22.45
2022-11-27T07:08:55.572Z,24.20
2022-11-27T07:11:26.365Z,24.73
2022-11-27T07:13:56.400Z,24.98
2022-11-27T07:16:24.779Z,24.55
2022-11-27T07:18:55.551Z,17.55
2022-11-27T07:21:23.574Z,25.67
2022-11-27T07:23:51.477Z,20.52
2022-11-27T07:26:25.851Z,24.67
2022-11-27T07:28:54.116Z,16.38
2022-11-27T07:31:29.051Z,22.67
2022-11-27T07:33:57.420Z,18.77
2022-11-27T07:36:28.404Z,27.73
2022-11-27T07:38:56.692Z,22.38
2022-11-27T07:41:26.964Z,18.75
2022-11-27T07:43:58.393Z,15.65
2022-11-27T07:46:26.079Z,25.57
2022-11-27T07:48:53.642Z,18.98
2022-11-27T07:51:22.871Z,21.10
2022-11-27T07:53:53.285Z,28.17
2022-11-27T07:56:21.629Z,20.90
2022-11-27T07:58:49.769Z,23.10
2022-11-27T08:01:19.600Z,17.48
2022-11-27T08:03:47.499Z,29.42
2022-11-27T08:06:33.382Z,24.75
2022-11-27T08:09:01.074Z,25.15
2022-11-27T08:11:32.883Z,20.53
2022-11-27T08:14:05.665Z,20.60
2022-11-27T08:16:34.776Z,22.45
2022-11-27T08:19:02.622Z,20.48
2022-11-27T08:21:31.206Z,22.60
2022-11-27T08:23:58.906Z,16.70
2022-11-27T08:26:29.850Z,18.42
2022-11-27T08:28:58.470Z,23.85
2022-11-27T08:31:26.346Z,18.23
2022-11-27T08:33:54.135Z,27.05
2022-11-27T08:36:22.809Z,22.67
2022-11-27T08:38:50.380Z,18.33
2022-11-27T08:41:18.238Z,26.17
2022-11-27T08:43:45.808Z,21.30
2022-11-27T08:46:13.585Z,21.77
2022-11-27T08:48:42.026Z,20.20
2022-11-27T08:51:13.264Z,19.48
2022-11-27T08:53:41.699Z,23.90
2022-11-27T08:56:16.141Z,23.40
2022-11-27T08:58:44.895Z,17.73
2022-11-27T09:01:19.514Z,17.37
2022-11-27T09:03:48.172Z,17.60
2022-11-27T09:06:18.651Z,16.15
2022-11-27T09:08:46.335Z,17.88
2022-11-27T09:11:16.431Z,13.98
2022-11-27T09:13:44.538Z,24.40
2022-11-27T09:16:18.216Z,18.50
2022-11-27T09:18:47.624Z,19.23
2022-11-27T09:21:17.249Z,19.88
2022-11-27T09:23:44.871Z,19.83
2022-11-27T09:26:15.196Z,16.17
2022-11-27T09:28:44.595Z,17.88
2022-11-27T09:31:15.527Z,22.02
2022-11-27T09:33:43.458Z,13.00
2022-11-27T09:36:17.069Z,25.77
2022-11-27T09:38:45.438Z,19.60
2022-11-27T09:41:28.427Z,18.95
2022-11-27T09:44:03.615Z,18.98
2022-11-27T09:46:36.069Z,23.88
2022-11-27T09:49:08.292Z,16.98
2022-11-27T09:51:42.316Z,18.97
2022-11-27T09:54:26.749Z,14.57
2022-11-27T09:56:56.453Z,16.40
2022-11-27T09:59:46.675Z,17.00
2022-11-27T10:02:21.335Z,19.15
2022-11-27T10:05:12.947Z,15.50
2022-11-27T10:07:54.312Z,16.25
2022-11-27T10:10:46.853Z,14.63
2022-11-27T10:13:17.561Z,17.05
2022-11-27T10:15:56.568Z,16.77
2022-11-27T10:18:30.243Z,16.37
2022-11-27T10:21:13.540Z,17.83
2022-11-27T10:24:03.325Z,15.75
2022-11-27T10:26:45.615Z,13.23
2022-11-27T10:29:13.387Z,27.35
2022-11-27T10:31:48.605Z,19.07
2022-11-27T10:34:38.751Z,12.48
2022-11-27T10:37:17.586Z,14.48
2022-11-27T10:39:56.996Z,16.23
2022-11-27T10:42:40.952Z,12.55
2022-11-27T10:45:30.228Z,15.67
2022-11-27T10:47:57.952Z,15.32
2022-11-27T10:50:25.566Z,17.48
2022-11-27T10:52:57.437Z,22.70
2022-11-27T10:55:53.569Z,13.38
2022-11-27T10:58:34.743Z,20.07
2022-11-27T11:01:09.149Z,15.23
2022-11-27T11:03:37.152Z,15.18
2022-11-27T11:06:24.555Z,12.57
2022-11-27T11:09:12.639Z,18.23
2022-11-27T11:11:40.356Z,16.33
2022-11-27T11:14:22.943Z,16.02
2022-11-27T11:16:51.456Z,13.48
2022-11-27T11:19:23.659Z,17.25
2022-11-27T11:21:52.550Z,13.52
2022-11-27T11:24:29.447Z,23.17
2022-11-27T11:27:01.232Z,16.67
2022-11-27T11:29:36.903Z,16.90
2022-11-27T11:32:14.768Z,9.25
2022-11-27T11:34:57.685Z,13.85
2022-11-27T11:37:34.586Z,13.13
2022-11-27T11:40:23.676Z,18.65
2022-11-27T11:43:31.139Z,14.73
2022-11-27T11:46:08.694Z,16.50
2022-11-27T11:48:37.897Z,15.75
2022-11-27T11:51:16.107Z,18.47
2022-11-27T11:53:45.678Z,16.92
2022-11-27T11:56:26.287Z,14.85
2022-11-27T11:58:58.797Z,14.90
2022-11-27T12:01:47.497Z,15.27
2022-11-27T12:04:33.891Z,15.00
2022-11-27T12:07:04.545Z,14.98
2022-11-27T12:09:44.220Z,15.52
2022-11-27T12:12:32.033Z,15.50
2022-11-27T12:15:13.336Z,14.23
2022-11-27T12:18:13.296Z,12.93
2022-11-27T12:20:49.723Z,14.70
2022-11-27T12:23:29.487Z,16.08
2022-11-27T12:26:27.257Z,20.52
2022-11-27T12:29:04.096Z,17.33
2022-11-27T12:31:48.754Z,14.70
2022-11-27T12:34:16.336Z,19.52
2022-11-27T12:37:22.674Z,17.25
2022-11-27T12:40:12.084Z,17.13
2022-11-27T12:42:48.516Z,14.85
2022-11-27T12:45:34.569Z,12.13
2022-11-27T12:48:34.976Z,18.38
2022-11-27T12:51:09.345Z,14.40
2022-11-27T12:53:45.529Z,18.88
2022-11-27T12:56:26.811Z,15.30
2022-11-27T12:59:04.853Z,12.70
2022-11-27T13:01:45.599Z,19.05
2022-11-27T13:04:19.166Z,18.50
2022-11-27T13:07:12.789Z,19.75
2022-11-27T13:10:03.349Z,13.07
2022-11-27T13:12:39.613Z,12.17
2022-11-27T13:15:17.205Z,14.13
2022-11-27T13:17:49.452Z,15.63
2022-11-27T13:20:24.549Z,18.88
2022-11-27T13:22:52.665Z,13.60
2022-11-27T13:25:21.813Z,17.60
2022-11-27T13:27:53.050Z,18.30
2022-11-27T13:30:24.988Z,11.25
2022-11-27T13:32:56.366Z,17.83
2022-11-27T13:35:44.309Z,16.40
2022-11-27T13:38:25.452Z,15.13
2022-11-27T13:40:59.468Z,15.35
2022-11-27T13:43:33.982Z,18.17
2022-11-27T13:46:05.044Z,12.73
2022-11-27T13:48:41.808Z,16.00
2022-11-27T13:51:11.737Z,17.67
2022-11-27T13:53:42.542Z,18.42
2022-11-27T13:56:10.321Z,14.85
2022-11-27T13:58:41.059Z,18.52
2022-11-27T14:01:21.621Z,20.52
2022-11-27T14:03:50.252Z,16.20
2022-11-27T14:06:25.101Z,17.38
2022-11-27T14:09:04.638Z,16.67
2022-11-27T14:11:40.318Z,17.05
2022-11-27T14:14:16.112Z,16.40
2022-11-27T14:16:54.614Z,17.23
2022-11-27T14:19:30.661Z,16.58
2022-11-27T14:22:02.166Z,17.17
2022-11-27T14:24:44.092Z,14.02
2022-11-27T14:27:18.339Z,13.63
2022-11-27T14:29:46.704Z,12.23
2022-11-27T14:32:16.220Z,19.67
2022-11-27T14:34:44.965Z,15.23
2022-11-27T14:37:24.966Z,18.17
2022-11-27T14:39:52.941Z,19.85
2022-11-27T14:42:28.874Z,15.40
2022-11-27T14:45:21.442Z,14.93
2022-11-27T14:47:54.720Z,18.20
2022-11-27T14:50:22.989Z,14.68
2022-11-27T14:52:56.630Z,19.40
2022-11-27T14:55:28.891Z,23.63
2022-11-27T14:57:59.384Z,17.40
2022-11-27T15:00:27.649Z,19.05
2022-11-27T15:02:55.330Z,19.27
2022-11-27T15:05:28.876Z,17.42
2022-11-27T15:07:58.351Z,15.87
2022-11-27T15:10:37.170Z,13.68
2022-11-27T15:13:07.508Z,17.67
2022-11-27T15:15:44.810Z,19.38
2022-11-27T15:18:22.672Z,9.77
2022-11-27T15:20:51.251Z,16.30
2022-11-27T15:23:21.525Z,16.65
2022-11-27T15:26:08.328Z,17.38
2022-11-27T15:28:43.432Z,19.02
2022-11-27T15:31:37.616Z,12.93
2022-11-27T15:34:06.654Z,14.60
2022-11-27T15:36:38.603Z,15.40
2022-11-27T15:39:32.025Z,18.33
2022-11-27T15:42:02.406Z,14.75
2022-11-27T15:44:32.903Z,15.15
2022-11-27T15:47:02.679Z,16.83
2022-11-27T15:49:30.865Z,18.70
2022-11-27T15:51:58.551Z,15.57
2022-11-27T15:54:26.730Z,18.33
2022-11-27T15:56:54.298Z,17.67
2022-11-27T15:59:22.114Z,12.90
2022-11-27T16:01:49.897Z,19.75
2022-11-27T16:04:17.690Z,10.27
2022-11-27T16:06:45.894Z,12.30
2022-11-27T16:09:13.703Z,16.92
2022-11-27T16:11:41.685Z,10.87
2022-11-27T16:14:09.513Z,15.75
2022-11-27T16:16:38.661Z,15.30
2022-11-27T16:19:06.578Z,10.43
2022-11-27T16:21:35.559Z,14.38
2022-11-27T16:24:05.950Z,11.13
2022-11-27T16:26:34.909Z,12.73
2022-11-27T16:29:02.500Z,13.32
2022-11-27T16:31:30.487Z,12.85
2022-11-27T16:33:58.249Z,16.00
2022-11-27T16:36:26.436Z,9.07
2022-11-27T16:38:55.460Z,11.38
2022-11-27T16:41:25.590Z,10.40
2022-11-27T16:43:56.873Z,8.68
2022-11-27T16:46:30.604Z,7.50
2022-11-27T16:48:59.423Z,10.00
2022-11-27T16:51:32.643Z,7.75
2022-11-27T16:54:05.375Z,6.03
2022-11-27T16:56:35.112Z,5.25
2022-11-27T16:59:13.654Z,7.25
2022-11-27T17:01:42.420Z,8.30
2022-11-27T17:04:18.355Z,6.35
2022-11-27T17:06:47.085Z,4.85
2022-11-27T17:09:15.364Z,3.30
2022-11-27T17:11:45.967Z,5.10
2022-11-27T17:14:13.772Z,3.73
2022-11-27T17:16:42.899Z,7.40
2022-11-27T17:19:13.582Z,4.65
2022-11-27T17:21:42.319Z,4.03
2022-11-27T17:24:16.167Z,3.60
2022-11-27T17:26:47.326Z,4.40
2022-11-27T17:29:17.912Z,4.18
2022-11-27T17:31:45.628Z,7.57
2022-11-27T17:34:16.049Z,6.80
2022-11-27T17:36:45.422Z,7.25
2022-11-27T17:39:15.408Z,4.30
2022-11-27T17:41:46.930Z,5.70
2022-11-27T17:44:14.689Z,6.90
2022-11-27T17:46:48.144Z,7.75
2022-11-27T17:49:16.224Z,6.38
2022-11-27T17:51:45.487Z,10.17
2022-11-27T17:54:15.030Z,7.88
2022-11-27T17:56:42.938Z,10.43
2022-11-27T17:59:10.813Z,7.15
2022-11-27T18:01:39.676Z,8.90
2022-11-27T18:04:07.827Z,6.50
2022-11-27T18:06:36.538Z,10.52
2022-11-27T18:09:04.517Z,6.40
2022-11-27T18:11:33.962Z,10.27
2022-11-27T18:14:02.321Z,12.48
2022-11-27T18:16:33.846Z,9.90
2022-11-27T18:19:07.107Z,7.15
2022-11-27T18:21:35.640Z,6.72
2022-11-27T18:27:10.800Z,8.15
2022-11-27T18:29:42.280Z,5.03
2022-11-27T18:32:11.937Z,6.38
2022-11-27T18:34:40.499Z,9.38
2022-11-27T18:37:08.400Z,8.35
2022-11-27T18:39:36.931Z,11.80
2022-11-27T18:42:05.513Z,11.40
2022-11-27T18:44:37.293Z,5.15
2022-11-27T18:47:10.243Z,10.43
2022-11-27T18:49:39.489Z,10.07
2022-11-27T18:52:08.446Z,12.52
2022-11-27T18:54:37.427Z,10.73
2022-11-27T18:57:07.134Z,4.97
2022-11-27T18:59:35.311Z,8.93
2022-11-27T19:02:04.532Z,11.55
2022-11-27T19:04:36.354Z,7.75
2022-11-27T19:07:04.022Z,6.40
2022-11-27T19:09:31.641Z,8.68
2022-11-27T19:11:59.247Z,11.25
2022-11-27T19:14:26.841Z,8.13
2022-11-27T19:16:54.647Z,10.82
2022-11-27T19:22:11.309Z,12.20
2022-11-27T19:24:40.770Z,10.75
2022-11-27T19:27:08.576Z,9.30
2022-11-27T19:29:36.127Z,8.60
2022-11-27T19:32:04.058Z,9.23
2022-11-27T19:34:31.662Z,14.77
2022-11-27T19:36:59.445Z,15.63
2022-11-27T19:39:27.946Z,11.30
2022-11-27T19:41:57.947Z,10.52
2022-11-27T19:44:26.568Z,8.37
2022-11-27T19:46:54.167Z,10.70
2022-11-27T19:49:21.924Z,11.32
2022-11-27T19:51:49.909Z,11.52
2022-11-27T19:54:20.594Z,10.10
2022-11-27T19:56:49.560Z,7.67
2022-11-27T19:59:22.896Z,6.60
2022-11-27T20:01:54.457Z,9.23
2022-11-27T20:04:26.896Z,10.15
2022-11-27T20:06:55.371Z,11.27
2022-11-27T20:09:23.498Z,9.90
2022-11-27T20:11:51.324Z,14.23
2022-11-27T20:14:19.612Z,8.35
2022-11-27T20:16:47.714Z,6.22
2022-11-27T20:19:16.021Z,7.70
2022-11-27T20:21:45.501Z,10.77
2022-11-27T20:24:14.815Z,12.30
2022-11-27T20:26:43.317Z,8.48
2022-11-27T20:29:13.226Z,9.38
2022-11-27T20:31:42.164Z,8.88
2022-11-27T20:34:16.601Z,9.20
2022-11-27T20:36:44.260Z,9.65
2022-11-27T20:39:16.272Z,10.02
2022-11-27T20:41:47.203Z,7.03
2022-11-27T20:44:15.897Z,11.85
2022-11-27T20:46:44.400Z,7.70
2022-11-27T20:49:12.206Z,10.98
2022-11-27T20:51:40.056Z,9.18
2022-11-27T20:54:10.882Z,11.00
2022-11-27T20:56:39.010Z,6.68
2022-11-27T20:59:07.967Z,9.03
2022-11-27T21:01:37.496Z,10.25
2022-11-27T21:04:15.982Z,14.57
2022-11-27T21:06:44.353Z,11.27
2022-11-27T21:09:14.112Z,9.77
2022-11-27T21:11:43.465Z,11.70
2022-11-27T21:14:13.815Z,13.18
2022-11-27T21:16:47.031Z,13.85
2022-11-27T21:19:23.007Z,11.25
2022-11-27T21:21:51.982Z,14.88
2022-11-27T21:24:20.964Z,9.53
2022-11-27T21:26:49.221Z,10.98
2022-11-27T21:29:17.394Z,11.75
2022-11-27T21:31:47.223Z,10.98
2022-11-27T21:34:15.636Z,13.98
2022-11-27T21:36:44.895Z,17.40
2022-11-27T21:39:20.146Z,9.63
2022-11-27T21:41:50.225Z,8.20
2022-11-27T21:44:20.507Z,13.43
2022-11-27T21:46:49.729Z,8.93
2022-11-27T21:49:20.570Z,10.40
2022-11-27T21:51:54.787Z,9.35
2022-11-27T21:54:29.980Z,11.90
2022-11-27T21:56:58.274Z,14.75
2022-11-27T21:59:25.840Z,12.93
2022-11-27T22:01:57.203Z,12.23
2022-11-27T22:04:25.398Z,10.13
2022-11-27T22:06:53.310Z,9.02
2022-11-27T22:09:21.011Z,11.20
2022-11-27T22:11:48.604Z,13.30
2022-11-27T22:14:16.944Z,15.47
2022-11-27T22:16:46.443Z,13.77
2022-11-27T22:19:16.591Z,13.93
2022-11-27T22:21:44.795Z,12.52
2022-11-27T22:24:19.036Z,17.33
2022-11-27T22:26:50.510Z,16.27
2022-11-27T22:29:18.375Z,14.35
2022-11-27T22:31:45.897Z,15.40
2022-11-27T22:34:17.099Z,10.88
2022-11-27T22:36:45.579Z,14.00
2022-11-27T22:39:13.629Z,12.23
2022-11-27T22:41:42.161Z,13.82
2022-11-27T22:44:15.345Z,9.20
2022-11-27T22:46:43.749Z,12.07
2022-11-27T22:49:13.929Z,14.13
2022-11-27T22:51:42.008Z,9.13
2022-11-27T22:54:13.293Z,9.27
2022-11-27T22:56:41.546Z,11.13
2022-11-27T23:01:58.622Z,10.68
2022-11-27T23:04:27.378Z,11.70
2022-11-27T23:06:55.038Z,7.55
2022-11-27T23:09:22.863Z,11.68
2022-11-27T23:11:51.033Z,8.00
2022-11-27T23:14:18.683Z,9.75
2022-11-27T23:16:46.422Z,12.77
2022-11-27T23:19:14.093Z,14.70
2022-11-27T23:21:41.996Z,9.98
2022-11-27T23:24:13.569Z,10.15
2022-11-27T23:26:41.577Z,12.30
2022-11-27T23:29:09.483Z,9.47
2022-11-27T23:31:37.480Z,8.73
2022-11-27T23:34:08.155Z,7.85
2022-11-27T23:36:36.198Z,6.47
2022-11-27T23:39:06.169Z,11.55
2022-11-27T23:41:34.003Z,11.57
2022-11-27T23:44:02.251Z,7.03
2022-11-27T23:46:30.646Z,6.80
2022-11-27T23:49:00.187Z,9.52
2022-11-27T23:51:31.431Z,7.53
2022-11-27T23:54:00.143Z,7.37
2022-11-27T23:56:30.404Z,9.88
2022-11-27T23:58:59.511Z,9.25
